Victorville, California
Current Conditions -  °F | °C
As of 6:55 AM on Friday 19 Dec 2014 (Local Time) from KVCV Reporting Station
NA  
Wind Chill: 32°   Ceiling: NA
Heat Index: 36°   Visibility: 10mi
Dew Point: 32°   Wind: 5mph
Humidity: 87%   Direction: 160°SSE
Pressure: 30.21"   Gusts: NA
Location:  34.51°N, 117.32°W
Report Text: KVCV 191455Z AUTO 16004KT 10SM 02/00 A3021 RMK AO2
Loading
Personal Weather Stations






























Interactive Weather Map New forecast layout! Learn more

10-Day Weather Forecast

Advertisements
Track Severe Weather on mobile